sensor_id;sensor_type;location;lat;lon;timestamp;P1;durP1;ratioP1;P2;durP2;ratioP2
3817;SDS011;1924;48.078;11.516;2023-05-02T04:02:42;29.27;;;0.80;;
3817;SDS011;1924;48.078;11.516;2023-05-02T04:05:08;29.47;;;0.80;;
3817;SDS011;1924;48.078;11.516;2023-05-02T04:07:35;29.27;;;0.80;;
3817;SDS011;1924;48.078;11.516;2023-05-02T04:10:02;29.50;;;0.80;;
3817;SDS011;1924;48.078;11.516;2023-05-02T04:12:29;29.40;;;0.80;;
3817;SDS011;1924;48.078;11.516;2023-05-02T04:14:56;29.50;;;0.80;;
3817;SDS011;1924;48.078;11.516;2023-05-02T04:17:22;29.50;;;0.80;;
3817;SDS011;1924;48.078;11.516;2023-05-02T04:19:50;29.40;;;0.80;;
3817;SDS011;1924;48.078;11.516;2023-05-02T04:22:17;29.50;;;0.80;;
3817;SDS011;1924;48.078;11.516;2023-05-02T04:24:44;29.40;;;0.80;;
3817;SDS011;1924;48.078;11.516;2023-05-02T04:27:11;29.40;;;0.80;;
3817;SDS011;1924;48.078;11.516;2023-05-02T04:29:37;29.50;;;0.80;;
3817;SDS011;1924;48.078;11.516;2023-05-02T04:32:04;29.40;;;0.80;;
3817;SDS011;1924;48.078;11.516;2023-05-02T04:34:32;29.40;;;0.80;;
3817;SDS011;1924;48.078;11.516;2023-05-02T04:37:00;29.30;;;0.80;;
3817;SDS011;1924;48.078;11.516;2023-05-02T04:39:27;29.20;;;0.80;;
3817;SDS011;1924;48.078;11.516;2023-05-02T04:41:54;29.40;;;0.80;;
3817;SDS011;1924;48.078;11.516;2023-05-02T04:44:21;29.40;;;0.80;;
3817;SDS011;1924;48.078;11.516;2023-05-02T04:46:48;29.20;;;0.80;;
3817;SDS011;1924;48.078;11.516;2023-05-02T04:49:14;29.30;;;0.80;;
3817;SDS011;1924;48.078;11.516;2023-05-02T04:51:41;29.20;;;0.80;;
3817;SDS011;1924;48.078;11.516;2023-05-02T04:54:10;29.10;;;0.80;;
3817;SDS011;1924;48.078;11.516;2023-05-02T04:56:37;29.33;;;0.80;;
3817;SDS011;1924;48.078;11.516;2023-05-02T04:59:04;29.10;;;0.80;;
3817;SDS011;1924;48.078;11.516;2023-05-02T05:01:31;29.00;;;0.80;;
3817;SDS011;1924;48.078;11.516;2023-05-02T05:03:57;28.97;;;0.80;;
3817;SDS011;1924;48.078;11.516;2023-05-02T05:06:24;29.20;;;0.80;;
3817;SDS011;1924;48.078;11.516;2023-05-02T05:08:51;29.20;;;0.80;;
3817;SDS011;1924;48.078;11.516;2023-05-02T05:11:19;29.30;;;0.80;;
3817;SDS011;1924;48.078;11.516;2023-05-02T05:13:47;29.30;;;0.80;;
3817;SDS011;1924;48.078;11.516;2023-05-02T05:16:14;29.30;;;0.80;;
3817;SDS011;1924;48.078;11.516;2023-05-02T05:18:41;29.30;;;0.80;;
3817;SDS011;1924;48.078;11.516;2023-05-02T05:21:08;29.13;;;0.80;;
3817;SDS011;1924;48.078;11.516;2023-05-02T05:23:36;29.30;;;0.80;;
3817;SDS011;1924;48.078;11.516;2023-05-02T05:26:09;29.20;;;0.80;;
3817;SDS011;1924;48.078;11.516;2023-05-02T05:28:38;29.30;;;0.80;;
3817;SDS011;1924;48.078;11.516;2023-05-02T05:31:05;29.07;;;0.80;;
3817;SDS011;1924;48.078;11.516;2023-05-02T05:33:32;29.10;;;0.80;;
3817;SDS011;1924;48.078;11.516;2023-05-02T05:36:02;29.30;;;0.80;;
3817;SDS011;1924;48.078;11.516;2023-05-02T05:38:30;29.30;;;0.80;;
3817;SDS011;1924;48.078;11.516;2023-05-02T05:40:57;29.40;;;0.80;;
3817;SDS011;1924;48.078;11.516;2023-05-02T05:43:23;29.50;;;0.80;;
3817;SDS011;1924;48.078;11.516;2023-05-02T05:45:52;29.47;;;0.80;;
3817;SDS011;1924;48.078;11.516;2023-05-02T05:48:21;29.30;;;0.80;;
3817;SDS011;1924;48.078;11.516;2023-05-02T05:50:48;29.30;;;0.70;;
3817;SDS011;1924;48.078;11.516;2023-05-02T05:53:16;29.50;;;0.80;;
3817;SDS011;1924;48.078;11.516;2023-05-02T05:55:43;29.40;;;0.80;;
3817;SDS011;1924;48.078;11.516;2023-05-02T05:58:10;29.40;;;0.80;;
3817;SDS011;1924;48.078;11.516;2023-05-02T06:00:37;29.30;;;0.80;;
3817;SDS011;1924;48.078;11.516;2023-05-02T06:03:05;29.43;;;0.80;;
3817;SDS011;1924;48.078;11.516;2023-05-02T06:05:32;29.30;;;0.80;;
3817;SDS011;1924;48.078;11.516;2023-05-02T06:07:59;29.37;;;0.80;;
3817;SDS011;1924;48.078;11.516;2023-05-02T06:10:26;29.50;;;0.80;;
3817;SDS011;1924;48.078;11.516;2023-05-02T06:12:52;29.50;;;0.80;;
3817;SDS011;1924;48.078;11.516;2023-05-02T06:15:19;29.27;;;0.80;;
3817;SDS011;1924;48.078;11.516;2023-05-02T06:17:46;29.57;;;0.80;;
3817;SDS011;1924;48.078;11.516;2023-05-02T06:20:14;29.30;;;0.80;;
3817;SDS011;1924;48.078;11.516;2023-05-02T06:22:41;29.33;;;0.80;;
3817;SDS011;1924;48.078;11.516;2023-05-02T06:25:08;29.37;;;0.80;;
3817;SDS011;1924;48.078;11.516;2023-05-02T06:27:35;29.33;;;0.80;;
3817;SDS011;1924;48.078;11.516;2023-05-02T06:30:02;29.50;;;0.80;;
3817;SDS011;1924;48.078;11.516;2023-05-02T06:32:30;29.33;;;0.80;;
3817;SDS011;1924;48.078;11.516;2023-05-02T06:34:56;29.50;;;0.80;;
3817;SDS011;1924;48.078;11.516;2023-05-02T06:37:25;29.40;;;0.80;;
3817;SDS011;1924;48.078;11.516;2023-05-02T06:39:51;29.37;;;0.73;;
3817;SDS011;1924;48.078;11.516;2023-05-02T06:42:18;29.50;;;0.73;;
3817;SDS011;1924;48.078;11.516;2023-05-02T06:44:45;29.43;;;0.73;;
3817;SDS011;1924;48.078;11.516;2023-05-02T06:47:11;29.40;;;0.80;;
3817;SDS011;1924;48.078;11.516;2023-05-02T06:49:38;29.50;;;0.80;;
3817;SDS011;1924;48.078;11.516;2023-05-02T06:52:05;29.60;;;0.80;;
3817;SDS011;1924;48.078;11.516;2023-05-02T06:54:33;29.70;;;0.80;;
3817;SDS011;1924;48.078;11.516;2023-05-02T06:57:00;29.40;;;0.80;;
3817;SDS011;1924;48.078;11.516;2023-05-02T06:59:27;29.67;;;0.80;;
3817;SDS011;1924;48.078;11.516;2023-05-02T07:01:53;29.80;;;0.80;;
3817;SDS011;1924;48.078;11.516;2023-05-02T07:04:20;29.70;;;0.80;;
3817;SDS011;1924;48.078;11.516;2023-05-02T07:06:47;29.50;;;0.80;;
3817;SDS011;1924;48.078;11.516;2023-05-02T07:09:14;29.70;;;0.80;;
3817;SDS011;1924;48.078;11.516;2023-05-02T07:11:42;29.60;;;0.80;;
3817;SDS011;1924;48.078;11.516;2023-05-02T07:14:08;29.50;;;0.80;;
3817;SDS011;1924;48.078;11.516;2023-05-02T07:16:35;29.60;;;0.80;;
3817;SDS011;1924;48.078;11.516;2023-05-02T07:19:02;29.60;;;0.80;;
3817;SDS011;1924;48.078;11.516;2023-05-02T07:21:30;29.50;;;0.80;;
3817;SDS011;1924;48.078;11.516;2023-05-02T07:23:57;29.60;;;0.80;;
3817;SDS011;1924;48.078;11.516;2023-05-02T07:26:24;29.50;;;0.80;;
3817;SDS011;1924;48.078;11.516;2023-05-02T07:28:53;29.47;;;0.80;;
3817;SDS011;1924;48.078;11.516;2023-05-02T07:31:19;29.57;;;0.80;;
3817;SDS011;1924;48.078;11.516;2023-05-02T07:33:46;29.70;;;0.80;;
3817;SDS011;1924;48.078;11.516;2023-05-02T07:36:13;29.70;;;0.70;;
3817;SDS011;1924;48.078;11.516;2023-05-02T07:38:39;29.70;;;0.80;;
3817;SDS011;1924;48.078;11.516;2023-05-02T07:41:06;29.70;;;0.80;;
3817;SDS011;1924;48.078;11.516;2023-05-02T07:43:33;29.73;;;0.77;;
3817;SDS011;1924;48.078;11.516;2023-05-02T07:46:03;29.80;;;0.80;;
3817;SDS011;1924;48.078;11.516;2023-05-02T07:48:31;29.70;;;0.73;;
3817;SDS011;1924;48.078;11.516;2023-05-02T07:51:04;29.63;;;0.80;;
3817;SDS011;1924;48.078;11.516;2023-05-02T07:53:32;29.80;;;0.80;;
3817;SDS011;1924;48.078;11.516;2023-05-02T07:55:59;29.70;;;0.80;;
3817;SDS011;1924;48.078;11.516;2023-05-02T07:58:26;29.80;;;0.80;;
3817;SDS011;1924;48.078;11.516;2023-05-02T08:00:52;29.77;;;0.80;;
3817;SDS011;1924;48.078;11.516;2023-05-02T08:03:20;29.57;;;0.80;;
3817;SDS011;1924;48.078;11.516;2023-05-02T08:05:47;29.70;;;0.80;;
3817;SDS011;1924;48.078;11.516;2023-05-02T08:08:15;29.77;;;0.70;;
3817;SDS011;1924;48.078;11.516;2023-05-02T08:10:42;29.80;;;0.80;;
3817;SDS011;1924;48.078;11.516;2023-05-02T08:13:09;29.90;;;0.80;;
3817;SDS011;1924;48.078;11.516;2023-05-02T08:15:36;29.80;;;0.80;;
3817;SDS011;1924;48.078;11.516;2023-05-02T08:18:02;29.80;;;0.80;;
3817;SDS011;1924;48.078;11.516;2023-05-02T08:20:30;29.70;;;0.80;;
3817;SDS011;1924;48.078;11.516;2023-05-02T08:22:57;30.00;;;0.80;;
3817;SDS011;1924;48.078;11.516;2023-05-02T08:25:24;30.00;;;0.80;;
3817;SDS011;1924;48.078;11.516;2023-05-02T08:27:51;30.10;;;0.80;;
3817;SDS011;1924;48.078;11.516;2023-05-02T08:30:17;29.97;;;0.80;;
3817;SDS011;1924;48.078;11.516;2023-05-02T08:32:44;30.20;;;0.73;;
3817;SDS011;1924;48.078;11.516;2023-05-02T08:35:11;30.20;;;0.80;;
3817;SDS011;1924;48.078;11.516;2023-05-02T08:37:39;30.10;;;0.80;;
3817;SDS011;1924;48.078;11.516;2023-05-02T08:40:07;30.00;;;0.80;;
3817;SDS011;1924;48.078;11.516;2023-05-02T08:42:37;29.97;;;0.80;;
3817;SDS011;1924;48.078;11.516;2023-05-02T08:45:07;30.00;;;0.80;;
3817;SDS011;1924;48.078;11.516;2023-05-02T08:47:36;30.10;;;0.80;;
3817;SDS011;1924;48.078;11.516;2023-05-02T08:50:05;29.90;;;0.80;;
3817;SDS011;1924;48.078;11.516;2023-05-02T08:52:34;29.67;;;0.80;;
3817;SDS011;1924;48.078;11.516;2023-05-02T08:55:03;30.10;;;0.80;;
3817;SDS011;1924;48.078;11.516;2023-05-02T08:57:31;30.00;;;0.80;;
3817;SDS011;1924;48.078;11.516;2023-05-02T08:59:59;30.00;;;0.80;;
3817;SDS011;1924;48.078;11.516;2023-05-02T09:02:43;29.90;;;0.80;;
3817;SDS011;1924;48.078;11.516;2023-05-02T09:05:18;30.00;;;0.80;;
3817;SDS011;1924;48.078;11.516;2023-05-02T09:07:46;30.00;;;0.80;;
3817;SDS011;1924;48.078;11.516;2023-05-02T09:10:15;29.67;;;0.80;;
3817;SDS011;1924;48.078;11.516;2023-05-02T09:12:41;29.80;;;0.80;;
3817;SDS011;1924;48.078;11.516;2023-05-02T09:15:09;29.90;;;0.77;;
3817;SDS011;1924;48.078;11.516;2023-05-02T09:17:40;29.80;;;0.80;;
3817;SDS011;1924;48.078;11.516;2023-05-02T09:20:08;30.00;;;0.70;;
3817;SDS011;1924;48.078;11.516;2023-05-02T09:22:36;29.77;;;0.80;;
3817;SDS011;1924;48.078;11.516;2023-05-02T09:25:03;29.80;;;0.80;;
3817;SDS011;1924;48.078;11.516;2023-05-02T09:30:20;29.77;;;0.80;;
3817;SDS011;1924;48.078;11.516;2023-05-02T09:32:48;29.77;;;0.80;;
3817;SDS011;1924;48.078;11.516;2023-05-02T09:35:19;29.63;;;0.80;;
3817;SDS011;1924;48.078;11.516;2023-05-02T09:37:49;29.63;;;0.73;;
3817;SDS011;1924;48.078;11.516;2023-05-02T09:40:17;29.67;;;0.80;;
3817;SDS011;1924;48.078;11.516;2023-05-02T09:42:44;29.40;;;0.80;;
3817;SDS011;1924;48.078;11.516;2023-05-02T09:45:22;29.53;;;0.80;;
3817;SDS011;1924;48.078;11.516;2023-05-02T09:47:50;29.20;;;0.80;;
3817;SDS011;1924;48.078;11.516;2023-05-02T09:50:33;29.27;;;0.80;;
3817;SDS011;1924;48.078;11.516;2023-05-02T09:53:02;29.17;;;0.70;;
3817;SDS011;1924;48.078;11.516;2023-05-02T09:55:29;29.30;;;0.80;;
3817;SDS011;1924;48.078;11.516;2023-05-02T09:57:56;29.17;;;0.73;;
3817;SDS011;1924;48.078;11.516;2023-05-02T10:00:38;29.17;;;0.77;;
3817;SDS011;1924;48.078;11.516;2023-05-02T10:03:05;29.50;;;0.80;;
3817;SDS011;1924;48.078;11.516;2023-05-02T10:05:34;29.23;;;0.70;;
3817;SDS011;1924;48.078;11.516;2023-05-02T10:08:03;29.17;;;0.80;;
3817;SDS011;1924;48.078;11.516;2023-05-02T10:10:31;29.40;;;0.80;;
3817;SDS011;1924;48.078;11.516;2023-05-02T10:13:01;29.27;;;0.80;;
3817;SDS011;1924;48.078;11.516;2023-05-02T10:15:29;29.20;;;0.70;;
3817;SDS011;1924;48.078;11.516;2023-05-02T10:18:00;29.30;;;0.73;;
3817;SDS011;1924;48.078;11.516;2023-05-02T10:20:34;29.20;;;0.70;;
3817;SDS011;1924;48.078;11.516;2023-05-02T10:23:08;29.20;;;0.70;;
3817;SDS011;1924;48.078;11.516;2023-05-02T10:25:35;29.40;;;0.80;;
3817;SDS011;1924;48.078;11.516;2023-05-02T10:28:02;29.20;;;0.70;;
3817;SDS011;1924;48.078;11.516;2023-05-02T10:30:30;29.07;;;0.80;;
3817;SDS011;1924;48.078;11.516;2023-05-02T10:33:00;29.10;;;0.70;;
3817;SDS011;1924;48.078;11.516;2023-05-02T10:35:28;29.13;;;0.80;;
3817;SDS011;1924;48.078;11.516;2023-05-02T10:37:57;29.07;;;0.80;;
3817;SDS011;1924;48.078;11.516;2023-05-02T10:40:26;29.17;;;0.80;;
3817;SDS011;1924;48.078;11.516;2023-05-02T10:42:53;29.07;;;0.80;;
3817;SDS011;1924;48.078;11.516;2023-05-02T10:45:30;29.30;;;0.80;;
3817;SDS011;1924;48.078;11.516;2023-05-02T10:48:13;29.30;;;0.73;;
3817;SDS011;1924;48.078;11.516;2023-05-02T10:50:47;29.07;;;0.77;;
3817;SDS011;1924;48.078;11.516;2023-05-02T10:53:22;29.10;;;0.80;;
3817;SDS011;1924;48.078;11.516;2023-05-02T10:56:12;28.70;;;0.80;;
3817;SDS011;1924;48.078;11.516;2023-05-02T10:58:40;29.00;;;0.77;;
3817;SDS011;1924;48.078;11.516;2023-05-02T11:04:14;28.87;;;0.80;;
3817;SDS011;1924;48.078;11.516;2023-05-02T11:09:42;28.90;;;0.73;;
3817;SDS011;1924;48.078;11.516;2023-05-02T11:12:09;28.50;;;0.73;;
3817;SDS011;1924;48.078;11.516;2023-05-02T11:14:45;28.50;;;0.80;;
3817;SDS011;1924;48.078;11.516;2023-05-02T11:17:13;28.37;;;0.80;;
3817;SDS011;1924;48.078;11.516;2023-05-02T11:22:55;28.60;;;0.70;;
3817;SDS011;1924;48.078;11.516;2023-05-02T11:25:33;28.30;;;0.80;;
3817;SDS011;1924;48.078;11.516;2023-05-02T11:28:02;28.40;;;0.80;;
3817;SDS011;1924;48.078;11.516;2023-05-02T11:30:43;28.30;;;0.70;;
3817;SDS011;1924;48.078;11.516;2023-05-02T11:33:16;28.30;;;0.80;;
3817;SDS011;1924;48.078;11.516;2023-05-02T11:35:44;28.30;;;0.80;;
3817;SDS011;1924;48.078;11.516;2023-05-02T11:38:15;28.40;;;0.70;;
3817;SDS011;1924;48.078;11.516;2023-05-02T11:40:50;28.20;;;0.80;;
3817;SDS011;1924;48.078;11.516;2023-05-02T11:43:18;28.20;;;0.80;;
3817;SDS011;1924;48.078;11.516;2023-05-02T11:45:46;28.00;;;0.70;;
3817;SDS011;1924;48.078;11.516;2023-05-02T11:48:14;28.20;;;0.70;;
3817;SDS011;1924;48.078;11.516;2023-05-02T11:50:42;28.27;;;0.73;;
3817;SDS011;1924;48.078;11.516;2023-05-02T11:53:11;28.27;;;0.80;;
3817;SDS011;1924;48.078;11.516;2023-05-02T11:55:44;28.20;;;0.80;;
3817;SDS011;1924;48.078;11.516;2023-05-02T11:58:12;28.30;;;0.80;;
3817;SDS011;1924;48.078;11.516;2023-05-02T12:00:40;28.47;;;0.80;;
3817;SDS011;1924;48.078;11.516;2023-05-02T12:03:21;28.50;;;0.73;;
3817;SDS011;1924;48.078;11.516;2023-05-02T12:05:50;28.50;;;0.80;;
3817;SDS011;1924;48.078;11.516;2023-05-02T12:08:18;28.70;;;0.80;;
3817;SDS011;1924;48.078;11.516;2023-05-02T12:10:47;28.67;;;0.70;;
3817;SDS011;1924;48.078;11.516;2023-05-02T12:13:16;28.70;;;0.70;;
3817;SDS011;1924;48.078;11.516;2023-05-02T12:15:42;28.60;;;0.70;;
3817;SDS011;1924;48.078;11.516;2023-05-02T12:18:10;28.57;;;0.70;;
3817;SDS011;1924;48.078;11.516;2023-05-02T12:20:39;28.80;;;0.80;;
3817;SDS011;1924;48.078;11.516;2023-05-02T12:23:06;28.47;;;0.80;;
3817;SDS011;1924;48.078;11.516;2023-05-02T12:25:36;28.40;;;0.70;;
3817;SDS011;1924;48.078;11.516;2023-05-02T12:28:05;28.70;;;0.70;;
3817;SDS011;1924;48.078;11.516;2023-05-02T12:30:33;28.50;;;0.70;;
3817;SDS011;1924;48.078;11.516;2023-05-02T12:33:02;28.50;;;0.70;;
3817;SDS011;1924;48.078;11.516;2023-05-02T12:35:30;28.80;;;0.80;;
3817;SDS011;1924;48.078;11.516;2023-05-02T12:38:06;28.77;;;0.70;;
3817;SDS011;1924;48.078;11.516;2023-05-02T12:40:36;28.80;;;0.70;;
3817;SDS011;1924;48.078;11.516;2023-05-02T12:43:04;28.50;;;0.70;;
3817;SDS011;1924;48.078;11.516;2023-05-02T12:45:34;28.70;;;0.70;;
3817;SDS011;1924;48.078;11.516;2023-05-02T12:48:16;28.70;;;0.80;;
3817;SDS011;1924;48.078;11.516;2023-05-02T12:50:44;28.70;;;0.70;;
3817;SDS011;1924;48.078;11.516;2023-05-02T12:53:11;28.50;;;0.70;;
3817;SDS011;1924;48.078;11.516;2023-05-02T12:55:38;28.37;;;0.80;;
3817;SDS011;1924;48.078;11.516;2023-05-02T12:58:07;28.60;;;0.70;;
3817;SDS011;1924;48.078;11.516;2023-05-02T13:00:37;28.47;;;0.70;;
3817;SDS011;1924;48.078;11.516;2023-05-02T13:03:04;28.40;;;0.80;;
3817;SDS011;1924;48.078;11.516;2023-05-02T13:05:32;28.40;;;0.70;;
3817;SDS011;1924;48.078;11.516;2023-05-02T13:08:00;28.40;;;0.80;;
3817;SDS011;1924;48.078;11.516;2023-05-02T13:10:27;28.20;;;0.70;;
3817;SDS011;1924;48.078;11.516;2023-05-02T13:12:54;28.20;;;0.80;;
3817;SDS011;1924;48.078;11.516;2023-05-02T13:15:22;28.27;;;0.70;;
3817;SDS011;1924;48.078;11.516;2023-05-02T13:17:49;28.20;;;0.70;;
3817;SDS011;1924;48.078;11.516;2023-05-02T13:20:16;28.40;;;0.80;;
3817;SDS011;1924;48.078;11.516;2023-05-02T13:22:43;28.50;;;0.70;;
3817;SDS011;1924;48.078;11.516;2023-05-02T13:25:10;28.30;;;0.80;;
3817;SDS011;1924;48.078;11.516;2023-05-02T13:27:37;28.20;;;0.70;;
3817;SDS011;1924;48.078;11.516;2023-05-02T13:30:05;28.30;;;0.70;;
3817;SDS011;1924;48.078;11.516;2023-05-02T13:32:34;28.10;;;0.70;;
3817;SDS011;1924;48.078;11.516;2023-05-02T13:35:01;28.30;;;0.73;;
3817;SDS011;1924;48.078;11.516;2023-05-02T13:37:28;28.30;;;0.70;;
3817;SDS011;1924;48.078;11.516;2023-05-02T13:39:55;28.30;;;0.80;;
3817;SDS011;1924;48.078;11.516;2023-05-02T13:42:22;28.50;;;0.80;;
3817;SDS011;1924;48.078;11.516;2023-05-02T13:44:48;28.50;;;0.70;;
3817;SDS011;1924;48.078;11.516;2023-05-02T13:47:15;28.30;;;0.70;;
3817;SDS011;1924;48.078;11.516;2023-05-02T13:49:43;28.30;;;0.70;;
3817;SDS011;1924;48.078;11.516;2023-05-02T13:52:10;28.40;;;0.70;;
3817;SDS011;1924;48.078;11.516;2023-05-02T13:54:37;28.33;;;0.80;;
3817;SDS011;1924;48.078;11.516;2023-05-02T13:57:04;28.37;;;0.73;;
3817;SDS011;1924;48.078;11.516;2023-05-02T13:59:30;28.40;;;0.80;;
3817;SDS011;1924;48.078;11.516;2023-05-02T14:01:57;28.40;;;0.80;;
3817;SDS011;1924;48.078;11.516;2023-05-02T14:04:24;28.47;;;0.80;;
3817;SDS011;1924;48.078;11.516;2023-05-02T14:06:52;28.27;;;0.70;;
3817;SDS011;1924;48.078;11.516;2023-05-02T14:09:19;28.40;;;0.77;;
3817;SDS011;1924;48.078;11.516;2023-05-02T14:11:46;28.47;;;0.80;;
3817;SDS011;1924;48.078;11.516;2023-05-02T14:14:13;28.30;;;0.77;;
3817;SDS011;1924;48.078;11.516;2023-05-02T14:16:40;28.20;;;0.77;;
3817;SDS011;1924;48.078;11.516;2023-05-02T14:19:07;28.40;;;0.70;;
3817;SDS011;1924;48.078;11.516;2023-05-02T14:21:34;28.20;;;0.73;;
3817;SDS011;1924;48.078;11.516;2023-05-02T14:24:03;28.30;;;0.80;;
3817;SDS011;1924;48.078;11.516;2023-05-02T14:26:30;28.20;;;0.80;;
3817;SDS011;1924;48.078;11.516;2023-05-02T14:28:57;28.40;;;0.80;;
3817;SDS011;1924;48.078;11.516;2023-05-02T14:31:24;28.00;;;0.70;;
3817;SDS011;1924;48.078;11.516;2023-05-02T14:33:52;28.33;;;0.80;;
3817;SDS011;1924;48.078;11.516;2023-05-02T14:36:18;28.10;;;0.70;;
3817;SDS011;1924;48.078;11.516;2023-05-02T14:38:45;28.40;;;0.70;;
3817;SDS011;1924;48.078;11.516;2023-05-02T14:41:16;28.20;;;0.70;;
3817;SDS011;1924;48.078;11.516;2023-05-02T14:43:43;28.10;;;0.80;;
3817;SDS011;1924;48.078;11.516;2023-05-02T14:46:10;28.00;;;0.70;;
3817;SDS011;1924;48.078;11.516;2023-05-02T14:48:37;28.07;;;0.70;;
3817;SDS011;1924;48.078;11.516;2023-05-02T14:51:03;28.20;;;0.70;;
3817;SDS011;1924;48.078;11.516;2023-05-02T14:53:31;28.20;;;0.80;;
3817;SDS011;1924;48.078;11.516;2023-05-02T14:55:57;28.30;;;0.80;;
3817;SDS011;1924;48.078;11.516;2023-05-02T14:58:26;28.10;;;0.80;;
3817;SDS011;1924;48.078;11.516;2023-05-02T15:00:52;28.10;;;0.80;;
3817;SDS011;1924;48.078;11.516;2023-05-02T15:03:19;28.30;;;0.80;;
3817;SDS011;1924;48.078;11.516;2023-05-02T15:05:46;28.10;;;0.80;;
3817;SDS011;1924;48.078;11.516;2023-05-02T15:08:12;28.10;;;0.80;;
3817;SDS011;1924;48.078;11.516;2023-05-02T15:10:39;28.20;;;0.80;;
3817;SDS011;1924;48.078;11.516;2023-05-02T15:13:06;28.20;;;0.80;;
3817;SDS011;1924;48.078;11.516;2023-05-02T15:15:34;28.20;;;0.80;;
3817;SDS011;1924;48.078;11.516;2023-05-02T15:18:01;28.20;;;0.80;;
3817;SDS011;1924;48.078;11.516;2023-05-02T15:20:28;28.30;;;0.77;;
3817;SDS011;1924;48.078;11.516;2023-05-02T15:22:55;28.20;;;0.80;;
3817;SDS011;1924;48.078;11.516;2023-05-02T15:25:27;28.10;;;0.80;;
3817;SDS011;1924;48.078;11.516;2023-05-02T15:27:54;27.90;;;0.80;;
3817;SDS011;1924;48.078;11.516;2023-05-02T15:30:20;28.10;;;0.80;;
3817;SDS011;1924;48.078;11.516;2023-05-02T15:32:48;28.10;;;0.80;;
3817;SDS011;1924;48.078;11.516;2023-05-02T15:35:15;27.90;;;0.77;;
3817;SDS011;1924;48.078;11.516;2023-05-02T15:37:42;27.90;;;0.80;;
3817;SDS011;1924;48.078;11.516;2023-05-02T15:40:10;28.00;;;0.80;;
3817;SDS011;1924;48.078;11.516;2023-05-02T15:42:38;28.10;;;0.70;;
3817;SDS011;1924;48.078;11.516;2023-05-02T15:45:06;28.00;;;0.70;;
3817;SDS011;1924;48.078;11.516;2023-05-02T15:47:33;27.80;;;0.70;;
3817;SDS011;1924;48.078;11.516;2023-05-02T15:50:01;28.07;;;0.77;;
3817;SDS011;1924;48.078;11.516;2023-05-02T15:52:28;28.10;;;0.70;;
3817;SDS011;1924;48.078;11.516;2023-05-02T15:54:55;27.90;;;0.73;;
3817;SDS011;1924;48.078;11.516;2023-05-02T15:57:22;27.90;;;0.70;;
3817;SDS011;1924;48.078;11.516;2023-05-02T15:59:50;28.00;;;0.70;;
3817;SDS011;1924;48.078;11.516;2023-05-02T16:02:17;27.90;;;0.70;;
3817;SDS011;1924;48.078;11.516;2023-05-02T16:04:43;27.80;;;0.70;;
3817;SDS011;1924;48.078;11.516;2023-05-02T16:07:12;28.10;;;0.80;;
3817;SDS011;1924;48.078;11.516;2023-05-02T16:09:38;28.00;;;0.73;;
3817;SDS011;1924;48.078;11.516;2023-05-02T16:12:06;28.00;;;0.80;;
3817;SDS011;1924;48.078;11.516;2023-05-02T16:14:33;28.00;;;0.80;;
3817;SDS011;1924;48.078;11.516;2023-05-02T16:17:00;28.10;;;0.70;;
3817;SDS011;1924;48.078;11.516;2023-05-02T16:19:27;28.00;;;0.77;;
3817;SDS011;1924;48.078;11.516;2023-05-02T16:21:54;28.00;;;0.77;;
3817;SDS011;1924;48.078;11.516;2023-05-02T16:24:22;27.90;;;0.77;;
3817;SDS011;1924;48.078;11.516;2023-05-02T16:26:49;28.00;;;0.70;;
3817;SDS011;1924;48.078;11.516;2023-05-02T16:29:16;27.87;;;0.70;;
3817;SDS011;1924;48.078;11.516;2023-05-02T16:31:42;27.90;;;0.70;;
3817;SDS011;1924;48.078;11.516;2023-05-02T16:34:10;27.90;;;0.80;;
3817;SDS011;1924;48.078;11.516;2023-05-02T16:36:36;27.90;;;0.80;;
3817;SDS011;1924;48.078;11.516;2023-05-02T16:39:03;28.00;;;0.73;;
3817;SDS011;1924;48.078;11.516;2023-05-02T16:41:32;28.10;;;0.70;;
3817;SDS011;1924;48.078;11.516;2023-05-02T16:44:00;27.70;;;0.73;;
3817;SDS011;1924;48.078;11.516;2023-05-02T16:46:26;27.87;;;0.70;;
3817;SDS011;1924;48.078;11.516;2023-05-02T16:48:53;27.77;;;0.80;;
3817;SDS011;1924;48.078;11.516;2023-05-02T16:51:20;28.00;;;0.77;;
3817;SDS011;1924;48.078;11.516;2023-05-02T16:53:48;28.00;;;0.70;;
3817;SDS011;1924;48.078;11.516;2023-05-02T16:56:14;27.90;;;0.80;;
3817;SDS011;1924;48.078;11.516;2023-05-02T16:58:43;27.90;;;0.70;;
3817;SDS011;1924;48.078;11.516;2023-05-02T17:01:09;28.10;;;0.70;;
3817;SDS011;1924;48.078;11.516;2023-05-02T17:03:38;28.10;;;0.80;;
3817;SDS011;1924;48.078;11.516;2023-05-02T17:06:04;28.00;;;0.80;;
3817;SDS011;1924;48.078;11.516;2023-05-02T17:08:31;28.00;;;0.80;;
3817;SDS011;1924;48.078;11.516;2023-05-02T17:10:58;28.20;;;0.80;;
3817;SDS011;1924;48.078;11.516;2023-05-02T17:13:25;27.97;;;0.80;;
3817;SDS011;1924;48.078;11.516;2023-05-02T17:15:53;27.90;;;0.80;;
3817;SDS011;1924;48.078;11.516;2023-05-02T17:18:20;28.10;;;0.80;;
3817;SDS011;1924;48.078;11.516;2023-05-02T17:20:47;28.00;;;0.80;;
3817;SDS011;1924;48.078;11.516;2023-05-02T17:23:15;27.80;;;0.80;;
3817;SDS011;1924;48.078;11.516;2023-05-02T17:25:41;28.07;;;0.70;;
3817;SDS011;1924;48.078;11.516;2023-05-02T17:28:08;28.30;;;0.80;;
3817;SDS011;1924;48.078;11.516;2023-05-02T17:30:35;28.00;;;0.80;;
3817;SDS011;1924;48.078;11.516;2023-05-02T17:33:03;28.20;;;0.80;;
3817;SDS011;1924;48.078;11.516;2023-05-02T17:35:30;28.10;;;0.80;;
3817;SDS011;1924;48.078;11.516;2023-05-02T17:37:57;28.37;;;0.80;;
3817;SDS011;1924;48.078;11.516;2023-05-02T17:40:24;28.30;;;0.80;;
3817;SDS011;1924;48.078;11.516;2023-05-02T17:42:51;28.13;;;0.80;;
3817;SDS011;1924;48.078;11.516;2023-05-02T17:45:19;28.50;;;0.80;;
3817;SDS011;1924;48.078;11.516;2023-05-02T17:47:46;28.23;;;0.80;;
3817;SDS011;1924;48.078;11.516;2023-05-02T17:50:14;28.60;;;0.80;;
3817;SDS011;1924;48.078;11.516;2023-05-02T17:52:41;28.50;;;0.80;;
3817;SDS011;1924;48.078;11.516;2023-05-02T17:55:08;28.60;;;0.80;;
3817;SDS011;1924;48.078;11.516;2023-05-02T17:57:34;28.80;;;0.80;;
3817;SDS011;1924;48.078;11.516;2023-05-02T18:00:01;29.00;;;0.73;;
3817;SDS011;1924;48.078;11.516;2023-05-02T18:02:31;28.87;;;0.77;;
3817;SDS011;1924;48.078;11.516;2023-05-02T18:04:58;28.90;;;0.80;;
3817;SDS011;1924;48.078;11.516;2023-05-02T18:07:28;29.00;;;0.80;;
3817;SDS011;1924;48.078;11.516;2023-05-02T18:09:56;28.90;;;0.80;;
3817;SDS011;1924;48.078;11.516;2023-05-02T18:12:26;28.90;;;0.80;;
3817;SDS011;1924;48.078;11.516;2023-05-02T18:14:52;28.90;;;0.80;;
3817;SDS011;1924;48.078;11.516;2023-05-02T18:17:20;28.90;;;0.80;;
3817;SDS011;1924;48.078;11.516;2023-05-02T18:19:47;28.90;;;0.80;;
3817;SDS011;1924;48.078;11.516;2023-05-02T18:22:14;28.90;;;0.80;;
3817;SDS011;1924;48.078;11.516;2023-05-02T18:24:44;29.00;;;0.80;;
3817;SDS011;1924;48.078;11.516;2023-05-02T18:27:11;28.90;;;0.80;;
3817;SDS011;1924;48.078;11.516;2023-05-02T18:29:37;29.00;;;0.80;;
3817;SDS011;1924;48.078;11.516;2023-05-02T18:32:05;29.00;;;0.70;;
3817;SDS011;1924;48.078;11.516;2023-05-02T18:34:32;29.07;;;0.80;;
3817;SDS011;1924;48.078;11.516;2023-05-02T18:36:59;29.00;;;0.70;;
3817;SDS011;1924;48.078;11.516;2023-05-02T18:39:29;29.20;;;0.80;;
3817;SDS011;1924;48.078;11.516;2023-05-02T18:41:58;28.97;;;0.80;;
3817;SDS011;1924;48.078;11.516;2023-05-02T18:44:27;29.20;;;0.80;;
3817;SDS011;1924;48.078;11.516;2023-05-02T18:46:54;29.10;;;0.80;;
3817;SDS011;1924;48.078;11.516;2023-05-02T18:49:21;29.13;;;0.80;;
3817;SDS011;1924;48.078;11.516;2023-05-02T18:51:48;29.33;;;0.77;;
3817;SDS011;1924;48.078;11.516;2023-05-02T18:54:15;29.40;;;0.80;;
3817;SDS011;1924;48.078;11.516;2023-05-02T18:56:43;29.30;;;0.80;;
3817;SDS011;1924;48.078;11.516;2023-05-02T18:59:11;29.20;;;0.80;;
3817;SDS011;1924;48.078;11.516;2023-05-02T19:01:38;29.27;;;0.80;;
3817;SDS011;1924;48.078;11.516;2023-05-02T19:04:05;29.20;;;0.80;;
3817;SDS011;1924;48.078;11.516;2023-05-02T19:06:32;29.20;;;0.80;;